Terminal Aerodrome Forecast
Issued by NWS Wakefield, VA

Home | Current Version | Previous Version | Text Only | Print | Product List | Glossary On
Versions: 1 2 3 4 5 6 7 8 9 10 11 12 13 14 15 16
730
FTUS41 KAKQ 231721
TAFECG
TAF
KECG 231721Z 2318/2418 07011KT P6SM BKN060
     FM240100 VRB03KT P6SM SKC
     FM241300 03006KT P6SM SCT070
     FM241500 04008KT P6SM BKN060=

USA.gov is the U.S. government's official web portal to all federal, state and local government web resources and services.